Time;durP1;ratioP1;P1;durP2;ratioP2;P2;SDS_P1;SDS_P2;PMS_P1;PMS_P2;Temp;Humidity;BMP_temperature;BMP_pressure;BME280_temperature;BME280_humidity;BME280_pressure;Samples;Min_cycle;Max_cycle;Signal;HPM_P1;HPM_P2
2023/04/10 00:00:05;;;;;;;56.30;39.83;;;9.70;99.90;;;;;;5069089;28;20137;-64
2023/04/10 00:02:32;;;;;;;57.63;40.88;;;9.70;99.90;;;;;;5056786;28;20096;-64
2023/04/10 00:04:58;;;;;;;55.95;40.05;;;9.70;99.90;;;;;;5057846;28;20064;-64
2023/04/10 00:07:24;;;;;;;57.78;39.97;;;9.60;99.90;;;;;;5063095;28;20088;-64
2023/04/10 00:09:50;;;;;;;57.53;39.58;;;9.60;99.90;;;;;;5063581;28;20037;-64
2023/04/10 00:12:15;;;;;;;51.47;38.78;;;9.60;99.90;;;;;;5061330;28;20033;-64
2023/04/10 00:14:41;;;;;;;53.70;39.25;;;9.60;99.90;;;;;;5061256;28;20050;-64
2023/04/10 00:17:07;;;;;;;56.03;39.58;;;9.60;99.90;;;;;;5058462;28;20052;-64
2023/04/10 00:19:33;;;;;;;52.45;38.20;;;9.60;99.90;;;;;;5055017;28;20044;-64
2023/04/10 00:21:58;;;;;;;55.22;38.50;;;9.50;99.90;;;;;;5058091;28;20094;-64
2023/04/10 00:24:24;;;;;;;53.60;38.92;;;9.50;99.90;;;;;;5060250;28;20033;-63
2023/04/10 00:26:50;;;;;;;55.60;39.67;;;9.50;99.90;;;;;;5057623;28;20072;-64
2023/04/10 00:29:15;;;;;;;54.42;38.03;;;9.40;99.90;;;;;;5062386;28;20470;-64
2023/04/10 00:31:41;;;;;;;54.15;38.28;;;9.40;99.90;;;;;;5054574;28;20143;-64
2023/04/10 00:34:07;;;;;;;53.97;38.65;;;9.40;99.90;;;;;;5062750;28;20100;-64
2023/04/10 00:36:33;;;;;;;54.88;39.13;;;9.50;99.90;;;;;;5056323;28;20071;-64
2023/04/10 00:38:59;;;;;;;53.78;37.90;;;9.40;99.90;;;;;;5053853;28;20509;-64
2023/04/10 00:41:25;;;;;;;54.50;39.08;;;9.40;99.90;;;;;;5054535;28;20048;-64
2023/04/10 00:43:55;;;;;;;55.45;38.00;;;9.30;99.90;;;;;;5052847;28;20434;-64
2023/04/10 00:46:22;;;;;;;51.75;36.72;;;9.30;99.90;;;;;;5069203;28;20470;-64
2023/04/10 00:48:49;;;;;;;55.65;39.42;;;9.20;99.90;;;;;;5069214;28;20449;-64
2023/04/10 00:51:14;;;;;;;52.70;39.00;;;9.20;99.90;;;;;;5055004;28;20854;-64
2023/04/10 00:53:40;;;;;;;53.95;38.30;;;9.20;99.90;;;;;;5055146;28;20064;-64
2023/04/10 00:56:07;;;;;;;53.33;38.33;;;9.20;99.90;;;;;;5054392;28;20122;-64
2023/04/10 00:58:32;;;;;;;52.85;38.97;;;9.10;99.90;;;;;;5053890;28;20083;-64
2023/04/10 01:00:58;;;;;;;54.08;38.95;;;9.10;99.90;;;;;;5051899;28;20456;-64
2023/04/10 01:03:24;;;;;;;56.28;39.40;;;9.10;99.90;;;;;;5053499;28;20073;-64
2023/04/10 01:06:07;;;;;;;50.75;36.92;;;9.00;99.90;;;;;;5053890;28;20132;-64
2023/04/10 01:08:38;;;;;;;52.30;37.65;;;9.00;99.90;;;;;;5058019;28;20124;-64
2023/04/10 01:11:16;;;;;;;55.05;40.10;;;9.00;99.90;;;;;;5051655;28;20055;-64
2023/04/10 01:14:03;;;;;;;53.65;38.10;;;8.90;99.90;;;;;;5056031;28;20076;-64
2023/04/10 01:16:57;;;;;;;50.65;37.45;;;8.90;99.90;;;;;;5051300;28;20051;-64
2023/04/10 01:19:47;;;;;;;52.92;38.20;;;8.90;99.90;;;;;;5055579;28;20047;-64
2023/04/10 01:22:15;;;;;;;51.97;38.22;;;8.90;99.90;;;;;;5057034;28;20044;-64
2023/04/10 01:25:10;;;;;;;52.20;37.65;;;8.80;99.90;;;;;;5051862;28;20113;-64
2023/04/10 01:27:41;;;;;;;50.70;35.92;;;8.80;99.90;;;;;;5053652;28;20055;-64
2023/04/10 01:30:13;;;;;;;53.45;36.78;;;8.80;99.90;;;;;;5050195;28;20094;-65
2023/04/10 01:32:40;;;;;;;50.60;36.28;;;8.80;99.90;;;;;;5051774;28;20052;-64
2023/04/10 01:35:07;;;;;;;52.13;38.80;;;8.70;99.90;;;;;;5051737;28;20395;-64
2023/04/10 01:37:37;;;;;;;49.97;36.45;;;8.80;99.90;;;;;;5052605;28;20055;-64
2023/04/10 01:40:07;;;;;;;50.92;35.92;;;8.70;99.90;;;;;;5056582;28;20029;-64
2023/04/10 01:42:38;;;;;;;50.03;36.88;;;8.70;99.90;;;;;;5052126;28;20148;-64
2023/04/10 01:45:07;;;;;;;50.30;37.10;;;8.70;99.90;;;;;;5052723;28;20053;-65
2023/04/10 01:47:34;;;;;;;53.17;37.53;;;8.70;99.90;;;;;;5051802;28;20073;-64
2023/04/10 01:50:00;;;;;;;48.75;34.88;;;8.70;99.90;;;;;;5053922;28;20477;-64
2023/04/10 01:52:29;;;;;;;46.35;34.17;;;8.70;99.90;;;;;;5051493;28;20551;-64
2023/04/10 01:54:55;;;;;;;51.45;37.25;;;8.70;99.90;;;;;;5052774;28;20145;-64
2023/04/10 01:57:21;;;;;;;48.85;35.67;;;8.60;99.90;;;;;;5056331;28;20036;-64
2023/04/10 01:59:46;;;;;;;53.95;36.92;;;8.60;99.90;;;;;;5053826;28;20041;-64
2023/04/10 02:02:12;;;;;;;47.95;35.38;;;8.60;99.90;;;;;;5052643;28;20470;-64
2023/04/10 02:04:38;;;;;;;51.63;35.88;;;8.60;99.90;;;;;;5058891;28;20063;-64
2023/04/10 02:07:12;;;;;;;51.83;35.72;;;8.60;99.90;;;;;;5053268;28;20054;-64
2023/04/10 02:09:46;;;;;;;51.35;36.20;;;8.50;99.90;;;;;;5059713;28;20037;-65
2023/04/10 02:12:17;;;;;;;52.80;36.47;;;8.50;99.90;;;;;;5056653;28;20053;-64
2023/04/10 02:14:45;;;;;;;45.95;34.17;;;8.50;99.90;;;;;;5057969;28;20378;-64
2023/04/10 02:17:14;;;;;;;48.13;34.83;;;8.50;99.90;;;;;;5058035;28;20045;-64
2023/04/10 02:19:40;;;;;;;46.55;33.90;;;8.50;99.90;;;;;;5055277;28;20033;-64
2023/04/10 02:22:07;;;;;;;49.70;34.20;;;8.50;99.90;;;;;;5082887;28;20127;-64
2023/04/10 02:24:34;;;;;;;46.20;34.00;;;8.40;99.90;;;;;;5058678;28;20051;-64
2023/04/10 02:27:00;;;;;;;47.17;33.03;;;8.40;99.90;;;;;;5067256;28;20052;-64
2023/04/10 02:29:26;;;;;;;46.85;33.15;;;8.40;99.90;;;;;;5061257;28;20036;-64
2023/04/10 02:31:51;;;;;;;46.40;33.65;;;8.40;99.90;;;;;;5059298;28;20471;-64
2023/04/10 02:34:17;;;;;;;46.55;33.35;;;8.30;99.90;;;;;;5067781;28;20069;-64
2023/04/10 02:36:43;;;;;;;44.78;32.20;;;8.40;99.90;;;;;;5057448;28;20206;-64
2023/04/10 02:39:08;;;;;;;45.00;33.53;;;8.40;99.90;;;;;;5056297;28;20049;-64
2023/04/10 02:41:34;;;;;;;45.10;32.33;;;8.30;99.90;;;;;;5051731;28;20041;-64
2023/04/10 02:44:00;;;;;;;46.22;33.28;;;8.30;99.90;;;;;;5054572;28;20036;-64
2023/04/10 02:46:26;;;;;;;44.92;32.03;;;8.30;99.90;;;;;;5058265;28;20036;-64
2023/04/10 02:48:52;;;;;;;43.83;30.88;;;8.30;99.90;;;;;;5056064;28;20041;-64
2023/04/10 02:51:17;;;;;;;45.15;32.72;;;8.30;99.90;;;;;;5063883;28;20109;-64
2023/04/10 02:53:43;;;;;;;41.40;30.15;;;8.30;99.90;;;;;;5057945;28;20377;-65
2023/04/10 02:56:10;;;;;;;43.50;31.35;;;8.20;99.90;;;;;;5065341;28;20052;-63
2023/04/10 02:58:37;;;;;;;40.20;29.98;;;8.20;99.90;;;;;;5055683;28;20065;-63
2023/04/10 03:01:04;;;;;;;42.10;30.67;;;8.20;99.90;;;;;;5057078;28;20036;-63
2023/04/10 03:03:30;;;;;;;43.88;31.33;;;8.20;99.90;;;;;;5065784;28;20484;-63
2023/04/10 03:05:55;;;;;;;41.80;30.58;;;8.20;99.90;;;;;;5066650;28;20048;-63
2023/04/10 03:08:21;;;;;;;41.22;29.42;;;8.20;99.90;;;;;;5069324;28;20036;-63
2023/04/10 03:10:50;;;;;;;40.80;29.58;;;8.10;99.90;;;;;;5069699;28;20072;-63
2023/04/10 03:13:16;;;;;;;42.70;30.38;;;8.10;99.90;;;;;;5059413;28;20492;-63
2023/04/10 03:15:41;;;;;;;42.10;29.33;;;8.10;99.90;;;;;;5058955;28;20064;-64
2023/04/10 03:18:08;;;;;;;39.20;29.10;;;8.10;99.90;;;;;;5055004;28;20029;-63
2023/04/10 03:20:35;;;;;;;38.25;28.27;;;8.10;99.90;;;;;;5067821;28;20132;-63
2023/04/10 03:23:02;;;;;;;40.50;28.83;;;8.10;99.90;;;;;;5060670;28;20055;-63
2023/04/10 03:25:27;;;;;;;41.55;29.35;;;8.10;99.90;;;;;;5057417;28;20048;-64
2023/04/10 03:27:53;;;;;;;41.67;28.38;;;8.00;99.90;;;;;;5057743;28;20054;-64
2023/04/10 03:30:19;;;;;;;39.78;27.08;;;8.10;99.90;;;;;;5062660;28;20116;-63
2023/04/10 03:32:45;;;;;;;39.17;27.83;;;8.00;99.90;;;;;;5052559;28;20087;-63
2023/04/10 03:35:10;;;;;;;39.75;27.42;;;8.10;99.90;;;;;;5056709;28;20406;-63
2023/04/10 03:37:36;;;;;;;40.67;27.65;;;8.10;99.90;;;;;;5056463;28;20056;-64
2023/04/10 03:40:06;;;;;;;36.20;25.92;;;8.10;99.90;;;;;;5057732;28;20047;-64
2023/04/10 03:42:32;;;;;;;39.45;26.80;;;8.10;99.90;;;;;;5055236;28;20045;-63
2023/04/10 03:44:57;;;;;;;36.28;26.63;;;8.10;99.90;;;;;;5052450;28;20499;-63
2023/04/10 03:47:23;;;;;;;35.92;24.33;;;8.20;99.90;;;;;;5061137;28;20109;-63
2023/04/10 03:49:49;;;;;;;36.53;25.48;;;8.20;99.90;;;;;;5070641;28;20075;-63
2023/04/10 03:52:14;;;;;;;32.92;24.33;;;8.20;99.90;;;;;;5065173;28;20589;-63
2023/04/10 03:54:41;;;;;;;35.38;24.40;;;8.20;99.90;;;;;;5069697;28;20056;-63
2023/04/10 03:57:06;;;;;;;36.28;24.63;;;8.20;99.90;;;;;;5070291;28;20041;-63
2023/04/10 03:59:32;;;;;;;32.47;23.70;;;8.20;99.90;;;;;;5061537;28;20357;-63
2023/04/10 04:01:57;;;;;;;33.70;23.73;;;8.10;99.90;;;;;;5056909;28;20093;-63
2023/04/10 04:04:24;;;;;;;32.03;22.48;;;8.10;99.90;;;;;;5055664;28;20036;-63
2023/04/10 04:06:50;;;;;;;33.55;24.25;;;8.10;99.90;;;;;;5069987;28;20124;-63
2023/04/10 04:09:16;;;;;;;31.10;22.55;;;8.00;99.90;;;;;;5065742;28;20178;-63
2023/04/10 04:11:41;;;;;;;32.70;22.15;;;8.00;99.90;;;;;;5064563;28;20396;-63
2023/04/10 04:14:07;;;;;;;32.05;22.38;;;8.00;99.90;;;;;;5051057;28;20072;-63
2023/04/10 04:16:32;;;;;;;30.33;22.65;;;8.00;99.90;;;;;;5054849;28;20043;-63
2023/04/10 04:18:58;;;;;;;31.33;22.35;;;8.00;99.90;;;;;;5056632;28;20050;-63
2023/04/10 04:21:24;;;;;;;29.60;21.75;;;8.00;99.90;;;;;;5053153;28;20077;-63
2023/04/10 04:23:50;;;;;;;30.20;21.48;;;8.00;99.90;;;;;;5051245;28;20064;-64
2023/04/10 04:26:15;;;;;;;30.98;21.50;;;8.00;99.90;;;;;;5050315;28;20349;-63
2023/04/10 04:28:41;;;;;;;30.98;21.50;;;8.00;99.90;;;;;;5052936;28;20049;-63
2023/04/10 04:31:07;;;;;;;32.08;21.10;;;8.10;99.90;;;;;;5057876;28;20044;-63
2023/04/10 04:33:32;;;;;;;30.38;21.15;;;8.10;99.90;;;;;;5061664;28;20032;-63
2023/04/10 04:35:58;;;;;;;27.85;19.95;;;8.10;99.90;;;;;;5063111;28;20045;-62
2023/04/10 04:38:23;;;;;;;30.48;20.95;;;8.10;99.90;;;;;;5057530;28;20068;-63
2023/04/10 04:40:49;;;;;;;29.35;20.83;;;8.10;99.90;;;;;;5061487;28;20440;-63
2023/04/10 04:43:14;;;;;;;29.90;21.20;;;8.10;99.90;;;;;;5066411;28;20063;-63
2023/04/10 04:45:40;;;;;;;28.25;20.45;;;8.10;99.90;;;;;;5065878;28;20332;-64
2023/04/10 04:48:06;;;;;;;27.38;19.98;;;8.10;99.90;;;;;;5054372;28;20144;-64
2023/04/10 04:50:31;;;;;;;27.88;20.10;;;8.10;99.90;;;;;;5060620;28;20985;-64
2023/04/10 04:52:59;;;;;;;30.30;21.08;;;8.10;99.90;;;;;;5064186;28;20043;-63
2023/04/10 04:55:24;;;;;;;30.52;21.40;;;8.00;99.90;;;;;;5057369;28;20219;-63
2023/04/10 04:57:50;;;;;;;26.80;19.33;;;8.10;99.90;;;;;;5059270;28;20115;-63
2023/04/10 05:00:16;;;;;;;27.98;19.98;;;8.10;99.90;;;;;;5065669;28;20033;-63
2023/04/10 05:02:41;;;;;;;28.73;20.42;;;8.10;99.90;;;;;;5056322;28;20487;-63
2023/04/10 05:05:07;;;;;;;28.33;20.63;;;8.10;99.90;;;;;;5055082;28;20072;-64
2023/04/10 05:07:33;;;;;;;28.45;20.08;;;8.10;99.90;;;;;;5053072;28;20044;-63
2023/04/10 05:09:58;;;;;;;28.13;20.08;;;8.10;99.90;;;;;;5051770;28;20624;-63
2023/04/10 05:12:24;;;;;;;28.65;19.77;;;8.10;99.90;;;;;;5053108;28;20456;-63
2023/04/10 05:14:50;;;;;;;27.45;19.45;;;8.10;99.90;;;;;;5050714;28;20110;-63
2023/04/10 05:17:15;;;;;;;27.38;19.42;;;8.10;99.90;;;;;;5052095;28;20037;-63
2023/04/10 05:19:41;;;;;;;25.40;17.65;;;8.10;99.90;;;;;;5052793;28;20053;-63
2023/04/10 05:22:07;;;;;;;25.60;17.67;;;8.10;99.90;;;;;;5052381;28;20063;-64
2023/04/10 05:24:32;;;;;;;24.58;17.23;;;8.10;99.90;;;;;;5056875;28;20036;-64
2023/04/10 05:26:58;;;;;;;24.10;17.05;;;8.10;99.90;;;;;;5048826;28;20048;-63
2023/04/10 05:29:24;;;;;;;25.67;17.73;;;8.10;99.90;;;;;;5050459;28;20032;-63
2023/04/10 05:31:50;;;;;;;23.35;17.25;;;8.20;99.90;;;;;;5053922;28;20079;-63
2023/04/10 05:34:16;;;;;;;24.73;17.08;;;8.20;99.90;;;;;;5051516;28;20120;-63
2023/04/10 05:36:42;;;;;;;23.70;16.08;;;8.30;99.90;;;;;;5051806;28;20044;-63
2023/04/10 05:39:07;;;;;;;22.95;16.15;;;8.30;99.90;;;;;;5051548;28;20040;-63
2023/04/10 05:41:33;;;;;;;22.73;16.92;;;8.40;99.90;;;;;;5057589;28;20428;-63
2023/04/10 05:43:58;;;;;;;24.77;16.88;;;8.40;99.90;;;;;;5061795;28;20044;-63
2023/04/10 05:46:24;;;;;;;24.38;16.15;;;8.40;99.90;;;;;;5060730;28;20040;-64
2023/04/10 05:48:50;;;;;;;23.27;16.55;;;8.50;99.90;;;;;;5059074;28;20468;-64
2023/04/10 05:51:15;;;;;;;24.20;16.95;;;8.50;99.90;;;;;;5054111;28;20448;-64
2023/04/10 05:53:41;;;;;;;25.75;17.67;;;8.60;99.90;;;;;;5054490;28;20061;-63
2023/04/10 05:56:07;;;;;;;25.30;17.52;;;8.60;99.90;;;;;;5056832;28;20076;-64
2023/04/10 05:58:32;;;;;;;24.10;17.23;;;8.70;99.90;;;;;;5062155;28;20058;-63
2023/04/10 06:00:58;;;;;;;24.00;17.17;;;8.70;99.90;;;;;;5062362;28;20040;-62
2023/04/10 06:03:26;;;;;;;24.38;17.33;;;8.80;99.90;;;;;;5064373;28;20102;-63
2023/04/10 06:05:52;;;;;;;23.67;16.45;;;8.80;99.90;;;;;;5068754;28;20044;-63
2023/04/10 06:08:18;;;;;;;27.35;17.55;;;8.90;99.90;;;;;;5060136;28;20055;-63
2023/04/10 06:10:45;;;;;;;24.40;16.92;;;8.90;99.90;;;;;;5061336;28;20040;-64
2023/04/10 06:13:11;;;;;;;25.65;17.15;;;9.00;99.90;;;;;;5067760;28;20049;-64
2023/04/10 06:15:36;;;;;;;23.30;16.50;;;9.00;99.90;;;;;;5062496;28;20056;-64
2023/04/10 06:18:02;;;;;;;24.35;16.95;;;9.10;99.90;;;;;;5062512;28;20039;-63
2023/04/10 06:20:28;;;;;;;24.52;17.60;;;9.20;99.90;;;;;;5062340;28;20448;-63
2023/04/10 06:22:53;;;;;;;23.70;16.95;;;9.20;99.90;;;;;;5067801;28;20151;-63
2023/04/10 06:25:19;;;;;;;22.33;16.08;;;9.30;99.90;;;;;;5057547;28;20041;-63
2023/04/10 06:27:45;;;;;;;25.65;16.92;;;9.30;99.90;;;;;;5057732;28;20039;-62
2023/04/10 06:30:10;;;;;;;24.00;16.70;;;9.30;99.90;;;;;;5052134;28;20064;-61
2023/04/10 06:32:36;;;;;;;23.25;16.10;;;9.30;99.90;;;;;;5056625;28;20691;-62
2023/04/10 06:35:02;;;;;;;23.00;16.67;;;9.40;99.90;;;;;;5058393;28;20417;-63
2023/04/10 06:37:31;;;;;;;22.98;16.02;;;9.40;99.90;;;;;;5056154;28;20033;-62
2023/04/10 06:40:08;;;;;;;26.35;17.23;;;9.50;99.90;;;;;;5057109;28;20478;-62
2023/04/10 06:42:34;;;;;;;22.13;16.33;;;9.50;99.90;;;;;;5059106;28;20120;-62
2023/04/10 06:45:00;;;;;;;21.90;15.43;;;9.60;99.90;;;;;;5056462;28;20045;-62
2023/04/10 06:47:26;;;;;;;24.55;16.50;;;9.60;99.90;;;;;;5060565;28;20097;-62
2023/04/10 06:49:51;;;;;;;23.33;16.50;;;9.60;99.90;;;;;;5058967;28;20175;-62
2023/04/10 06:52:20;;;;;;;21.92;15.98;;;9.70;99.90;;;;;;5053646;28;20057;-62
2023/04/10 06:54:46;;;;;;;26.42;17.10;;;9.80;99.90;;;;;;5057048;28;20523;-64
2023/04/10 06:57:11;;;;;;;22.90;16.75;;;9.90;99.90;;;;;;5058916;28;20044;-64
2023/04/10 06:59:37;;;;;;;22.77;15.32;;;9.90;99.90;;;;;;5058419;28;20063;-64
2023/04/10 07:02:03;;;;;;;20.55;15.50;;;10.00;99.90;;;;;;5058581;28;20389;-64
2023/04/10 07:04:29;;;;;;;20.50;15.20;;;10.10;99.90;;;;;;5055846;28;20063;-64
2023/04/10 07:06:55;;;;;;;20.98;15.00;;;10.10;99.90;;;;;;5047583;28;20045;-64
2023/04/10 07:09:20;;;;;;;20.20;14.20;;;10.10;99.90;;;;;;5052510;28;20044;-64
2023/04/10 07:11:46;;;;;;;22.20;14.60;;;10.20;99.90;;;;;;5053122;28;20105;-64
2023/04/10 07:14:12;;;;;;;22.90;15.05;;;10.30;99.90;;;;;;5067082;28;20495;-63
2023/04/10 07:16:37;;;;;;;20.58;14.50;;;10.40;99.90;;;;;;5052788;28;20048;-64
2023/04/10 07:19:03;;;;;;;20.17;14.30;;;10.50;99.90;;;;;;5063999;28;20101;-64
2023/04/10 07:21:29;;;;;;;20.77;14.98;;;10.60;99.90;;;;;;5065756;28;20032;-64
2023/04/10 07:23:54;;;;;;;20.02;14.50;;;10.70;99.90;;;;;;5056787;28;20087;-65
2023/04/10 07:26:20;;;;;;;20.25;14.45;;;10.80;99.90;;;;;;5059148;28;20111;-64
2023/04/10 07:28:45;;;;;;;17.10;13.15;;;10.90;99.90;;;;;;5063129;28;20036;-64
2023/04/10 07:31:12;;;;;;;17.90;12.27;;;11.10;99.90;;;;;;5069478;28;20045;-64
2023/04/10 07:33:38;;;;;;;18.85;13.45;;;11.20;99.90;;;;;;5065907;28;20060;-66
2023/04/10 07:36:04;;;;;;;20.20;13.95;;;11.30;99.90;;;;;;5061731;28;20041;-64
2023/04/10 07:38:33;;;;;;;17.20;12.10;;;11.40;99.90;;;;;;5055770;28;20484;-64
2023/04/10 07:40:59;;;;;;;17.92;12.25;;;11.60;99.90;;;;;;5051503;28;20036;-64
2023/04/10 07:43:25;;;;;;;17.83;11.90;;;11.70;99.90;;;;;;5062777;28;20107;-64
2023/04/10 07:45:51;;;;;;;16.50;12.27;;;11.90;99.90;;;;;;5061392;28;20502;-64
2023/04/10 07:48:19;;;;;;;15.65;11.43;;;12.10;99.90;;;;;;5062494;28;20513;-63
2023/04/10 07:50:45;;;;;;;16.58;11.50;;;12.30;99.90;;;;;;5059981;28;20213;-63
2023/04/10 07:53:10;;;;;;;17.42;12.05;;;12.40;99.90;;;;;;5059848;28;20175;-63
2023/04/10 07:55:44;;;;;;;17.52;11.63;;;12.40;99.90;;;;;;5065639;28;20071;-63
2023/04/10 07:58:09;;;;;;;14.35;10.63;;;12.50;99.90;;;;;;5063878;28;20134;-62
2023/04/10 08:00:36;;;;;;;16.17;12.13;;;12.60;99.90;;;;;;5068630;28;20072;-62
2023/04/10 08:03:03;;;;;;;15.63;11.57;;;12.60;99.90;;;;;;5065968;28;20428;-62
2023/04/10 08:05:29;;;;;;;14.73;11.13;;;12.60;99.90;;;;;;5070935;28;20494;-62
2023/04/10 08:07:54;;;;;;;15.27;10.70;;;12.60;99.90;;;;;;5068911;28;20076;-62
2023/04/10 08:10:20;;;;;;;15.82;10.77;;;12.70;99.90;;;;;;5071839;28;20125;-63
2023/04/10 08:12:45;;;;;;;14.95;10.23;;;12.70;99.90;;;;;;5068136;28;20036;-62
2023/04/10 08:15:11;;;;;;;15.23;11.05;;;12.80;99.90;;;;;;5074472;28;20052;-62
2023/04/10 08:17:36;;;;;;;16.00;11.10;;;12.90;99.90;;;;;;5067662;28;20466;-63
2023/04/10 08:20:03;;;;;;;15.55;10.57;;;13.00;99.90;;;;;;5063292;28;20041;-62
2023/04/10 08:22:29;;;;;;;15.07;9.95;;;13.00;99.90;;;;;;5057241;28;20054;-62
2023/04/10 08:24:55;;;;;;;13.82;9.57;;;13.10;99.90;;;;;;5069076;28;20070;-62
2023/04/10 08:27:21;;;;;;;14.40;9.68;;;13.20;99.90;;;;;;5065532;28;20348;-63
2023/04/10 08:29:46;;;;;;;13.88;10.50;;;13.30;99.90;;;;;;5065838;28;20049;-63
2023/04/10 08:32:12;;;;;;;15.18;10.10;;;13.40;99.90;;;;;;5063645;28;20091;-61
2023/04/10 08:34:38;;;;;;;12.75;9.00;;;13.50;99.90;;;;;;5066156;28;20040;-62
2023/04/10 08:37:08;;;;;;;13.60;9.75;;;13.60;99.90;;;;;;5066259;28;20462;-62
2023/04/10 08:39:38;;;;;;;12.90;9.10;;;13.70;99.90;;;;;;5071969;28;20049;-62
2023/04/10 08:42:05;;;;;;;13.80;9.68;;;13.70;99.90;;;;;;5065335;28;20048;-62
2023/04/10 08:44:30;;;;;;;14.10;9.60;;;13.80;99.90;;;;;;5065905;28;20083;-63
2023/04/10 08:46:59;;;;;;;12.38;9.10;;;13.90;99.90;;;;;;5060943;28;20334;-64
2023/04/10 08:49:38;;;;;;;12.25;9.40;;;14.10;99.90;;;;;;5062204;28;20040;-63
2023/04/10 08:52:07;;;;;;;12.63;9.07;;;14.20;99.90;;;;;;5065532;28;20097;-63
2023/04/10 08:54:36;;;;;;;12.65;8.88;;;14.30;99.90;;;;;;5065649;28;20084;-64
2023/04/10 08:57:05;;;;;;;13.45;9.13;;;14.30;99.90;;;;;;5070082;28;20411;-62
2023/04/10 08:59:31;;;;;;;11.80;8.75;;;14.30;99.90;;;;;;5072122;28;20071;-62
2023/04/10 09:01:58;;;;;;;12.30;8.55;;;14.30;99.90;;;;;;5065944;28;20064;-62
2023/04/10 09:04:24;;;;;;;12.00;8.93;;;14.40;99.90;;;;;;5066611;28;20090;-62
2023/04/10 09:06:53;;;;;;;11.93;9.07;;;14.40;99.90;;;;;;5066280;28;20044;-62
2023/04/10 09:09:18;;;;;;;13.05;9.45;;;14.50;99.90;;;;;;5059457;28;20401;-62
2023/04/10 09:11:59;;;;;;;12.68;8.98;;;14.60;99.90;;;;;;5066002;28;20064;-62
2023/04/10 09:14:32;;;;;;;11.23;8.43;;;14.70;99.90;;;;;;5067562;28;20041;-62
2023/04/10 09:17:20;;;;;;;11.63;8.70;;;14.70;99.90;;;;;;5066836;28;20139;-63
2023/04/10 09:19:54;;;;;;;12.05;8.85;;;14.80;99.90;;;;;;5042433;28;20036;-63
2023/04/10 09:22:31;;;;;;;12.50;9.05;;;14.80;99.90;;;;;;5063489;28;20044;-62
2023/04/10 09:24:58;;;;;;;11.82;8.82;;;14.80;99.90;;;;;;5062122;28;20142;-63
2023/04/10 09:27:36;;;;;;;11.63;8.35;;;14.90;99.90;;;;;;5064907;28;20041;-62
2023/04/10 09:30:02;;;;;;;12.10;8.80;;;14.90;99.90;;;;;;5067513;28;20379;-64
2023/04/10 09:32:39;;;;;;;11.50;8.65;;;14.90;99.90;;;;;;5071959;28;20092;-63
2023/04/10 09:35:06;;;;;;;12.43;9.10;;;15.00;99.90;;;;;;5068461;28;20119;-63
2023/04/10 09:37:32;;;;;;;13.00;8.88;;;15.10;99.90;;;;;;5066466;28;20032;-62
2023/04/10 09:39:58;;;;;;;12.35;8.35;;;15.20;99.90;;;;;;5068701;28;20131;-62
2023/04/10 09:42:36;;;;;;;11.77;8.75;;;15.20;99.90;;;;;;5069401;28;20145;-62
2023/04/10 09:45:02;;;;;;;12.20;8.43;;;15.30;99.90;;;;;;5060933;28;20151;-63
2023/04/10 09:47:28;;;;;;;11.43;8.55;;;15.40;99.90;;;;;;5063311;28;21566;-63
2023/04/10 09:49:59;;;;;;;11.52;8.68;;;15.60;99.90;;;;;;5065582;28;20036;-63
2023/04/10 09:52:25;;;;;;;12.32;8.20;;;15.70;99.90;;;;;;5061524;28;20467;-62
2023/04/10 09:55:15;;;;;;;13.48;8.50;;;15.70;99.90;;;;;;5062545;28;20073;-62
2023/04/10 09:57:42;;;;;;;10.68;8.10;;;15.80;99.90;;;;;;5058917;28;20034;-62
2023/04/10 10:00:09;;;;;;;10.25;7.78;;;15.80;99.90;;;;;;5057520;28;20061;-62
2023/04/10 10:02:40;;;;;;;9.90;7.25;;;15.90;99.90;;;;;;5056659;28;20051;-64
2023/04/10 10:05:06;;;;;;;10.30;7.30;;;15.90;99.90;;;;;;5065554;28;20098;-63
2023/04/10 10:07:32;;;;;;;9.48;7.47;;;15.90;99.90;;;;;;5059769;28;20046;-63
2023/04/10 10:10:00;;;;;;;10.77;7.03;;;15.90;99.20;;;;;;5064350;28;20050;-63
2023/04/10 10:12:39;;;;;;;10.90;7.65;;;15.80;98.60;;;;;;5054181;28;20049;-63
2023/04/10 10:15:40;;;;;;;9.68;7.28;;;15.90;98.40;;;;;;5058863;28;20044;-63
2023/04/10 10:18:30;;;;;;;10.68;7.10;;;15.90;98.30;;;;;;5059932;28;20480;-63
2023/04/10 10:20:56;;;;;;;9.52;6.70;;;16.00;98.40;;;;;;5054408;28;20052;-63
2023/04/10 10:23:22;;;;;;;9.60;6.70;;;16.10;98.90;;;;;;5060341;28;20431;-63
2023/04/10 10:25:49;;;;;;;10.70;6.88;;;16.10;98.60;;;;;;5058895;28;20044;-64
2023/04/10 10:28:16;;;;;;;9.43;6.75;;;16.10;98.30;;;;;;5067671;28;20262;-64
2023/04/10 10:30:43;;;;;;;10.73;6.95;;;16.00;97.70;;;;;;5066176;28;20037;-64
2023/04/10 10:33:11;;;;;;;10.70;7.38;;;16.00;97.70;;;;;;5063119;28;20067;-63
2023/04/10 10:35:36;;;;;;;9.02;6.53;;;16.00;97.70;;;;;;5065069;28;20526;-62
2023/04/10 10:38:04;;;;;;;9.57;7.05;;;16.00;98.20;;;;;;5067241;28;20076;-62
2023/04/10 10:40:50;;;;;;;9.55;6.90;;;15.90;97.60;;;;;;5068399;28;20484;-62
2023/04/10 10:43:36;;;;;;;10.90;6.93;;;16.00;97.90;;;;;;5070134;28;20045;-63
2023/04/10 10:46:15;;;;;;;9.50;6.80;;;15.90;97.60;;;;;;5063151;28;20089;-63
2023/04/10 10:48:54;;;;;;;8.45;6.22;;;16.10;97.90;;;;;;5065738;28;20049;-63
2023/04/10 10:51:20;;;;;;;8.25;6.28;;;16.10;97.70;;;;;;5070357;28;20032;-63
2023/04/10 10:53:45;;;;;;;8.38;6.05;;;16.20;97.70;;;;;;5075833;28;20044;-62
2023/04/10 10:56:17;;;;;;;10.02;6.18;;;16.20;97.20;;;;;;5060731;28;20056;-62
2023/04/10 10:58:54;;;;;;;9.18;6.53;;;16.20;97.50;;;;;;5063248;28;20087;-62
2023/04/10 11:01:21;;;;;;;9.45;6.53;;;16.30;97.20;;;;;;5060202;28;20074;-63
2023/04/10 11:03:46;;;;;;;9.15;6.32;;;16.40;97.40;;;;;;5066318;28;20094;-64
2023/04/10 11:06:52;;;;;;;8.43;6.50;;;16.30;97.30;;;;;;5069646;28;21546;-62
2023/04/10 11:09:44;;;;;;;8.05;6.05;;;16.40;95.50;;;;;;5069783;28;20061;-62
2023/04/10 11:12:10;;;;;;;8.40;6.40;;;16.40;97.60;;;;;;5069589;28;20439;-63
2023/04/10 11:14:36;;;;;;;9.63;7.00;;;16.50;97.50;;;;;;5060713;28;20160;-61
2023/04/10 11:17:02;;;;;;;9.93;6.30;;;16.40;97.20;;;;;;5060899;28;20110;-62
2023/04/10 11:19:27;;;;;;;9.70;6.78;;;16.40;97.10;;;;;;5073695;28;20083;-62
2023/04/10 11:22:04;;;;;;;8.25;6.35;;;16.30;96.80;;;;;;5064969;28;20041;-62
2023/04/10 11:24:50;;;;;;;8.85;6.85;;;16.40;96.70;;;;;;5059973;28;20131;-63
2023/04/10 11:27:47;;;;;;;9.95;6.97;;;16.40;96.40;;;;;;5067436;28;20052;-62
2023/04/10 11:30:30;;;;;;;9.05;6.50;;;16.50;96.70;;;;;;5066621;28;20039;-63
2023/04/10 11:32:56;;;;;;;8.70;6.32;;;16.60;97.90;;;;;;5067349;28;20379;-63
2023/04/10 11:35:22;;;;;;;10.27;6.80;;;16.60;96.90;;;;;;5068939;28;20052;-65
2023/04/10 11:37:47;;;;;;;8.95;6.28;;;16.70;96.60;;;;;;5066474;28;20045;-63
2023/04/10 11:40:13;;;;;;;9.75;6.90;;;16.70;96.70;;;;;;5066164;28;20025;-65
2023/04/10 11:42:39;;;;;;;8.40;6.32;;;16.70;96.70;;;;;;5070367;28;20039;-64
2023/04/10 11:45:26;;;;;;;9.93;6.93;;;16.90;97.00;;;;;;5075842;28;20036;-64
2023/04/10 11:47:53;;;;;;;8.77;6.80;;;16.90;95.60;;;;;;5064843;28;20155;-64
2023/04/10 11:50:19;;;;;;;9.60;7.15;;;16.90;95.50;;;;;;5069018;28;20033;-64
2023/04/10 11:52:49;;;;;;;9.55;7.30;;;17.00;96.00;;;;;;5063668;28;20360;-64
2023/04/10 11:55:15;;;;;;;9.50;6.57;;;17.10;96.40;;;;;;5070512;28;20050;-64
2023/04/10 11:57:41;;;;;;;9.48;7.32;;;17.00;96.50;;;;;;5070035;28;20099;-64
2023/04/10 12:00:07;;;;;;;11.23;7.47;;;17.00;96.10;;;;;;5067339;28;20460;-64
2023/04/10 12:02:33;;;;;;;11.15;7.60;;;17.00;96.30;;;;;;5065818;28;20100;-64
2023/04/10 12:04:59;;;;;;;9.02;7.03;;;17.10;96.80;;;;;;5070807;28;20036;-64
2023/04/10 12:07:30;;;;;;;10.05;7.25;;;17.20;97.30;;;;;;5070879;28;20143;-64
2023/04/10 12:09:56;;;;;;;10.25;7.05;;;17.20;96.60;;;;;;5071147;28;20463;-64
2023/04/10 12:12:35;;;;;;;8.95;6.63;;;17.30;96.10;;;;;;5069697;28;20399;-64
2023/04/10 12:15:00;;;;;;;8.77;6.38;;;17.40;96.40;;;;;;5066751;28;20081;-64
2023/04/10 12:17:27;;;;;;;9.68;6.80;;;17.40;96.50;;;;;;5069582;28;20044;-64
2023/04/10 12:19:52;;;;;;;9.02;6.43;;;17.40;97.00;;;;;;5066831;28;20131;-64
2023/04/10 12:22:18;;;;;;;8.63;6.25;;;17.50;96.70;;;;;;5062390;28;20119;-64
2023/04/10 12:24:46;;;;;;;7.70;6.10;;;17.40;96.50;;;;;;5066835;28;20033;-64
2023/04/10 12:27:26;;;;;;;9.43;6.00;;;17.40;96.50;;;;;;5071996;28;20032;-64
2023/04/10 12:29:54;;;;;;;7.97;6.18;;;17.40;96.90;;;;;;5061501;28;20091;-64
2023/04/10 12:32:20;;;;;;;7.30;5.25;;;17.40;96.90;;;;;;5068379;28;20048;-64
2023/04/10 12:34:56;;;;;;;7.05;5.10;;;17.40;96.40;;;;;;5054312;28;20460;-64
2023/04/10 12:37:22;;;;;;;10.32;5.55;;;17.40;96.00;;;;;;5054233;28;20084;-65
2023/04/10 12:39:48;;;;;;;7.70;5.47;;;17.30;95.30;;;;;;5053485;28;20114;-64
2023/04/10 12:42:21;;;;;;;7.50;5.35;;;17.20;95.30;;;;;;5055650;28;20448;-64